sensor_id;sensor_type;location;lat;lon;timestamp;pressure;altitude;pressure_sealevel;temperature;humidity
19795;BME280;10057;59.402;17.866;2023-03-05T00:01:19;100100.56;;;-1.74;50.76
19795;BME280;10057;59.402;17.866;2023-03-05T00:03:48;100105.75;;;-1.75;50.59
19795;BME280;10057;59.402;17.866;2023-03-05T00:06:15;100104.91;;;-1.76;50.92
19795;BME280;10057;59.402;17.866;2023-03-05T00:08:42;100102.31;;;-1.77;50.84
19795;BME280;10057;59.402;17.866;2023-03-05T00:11:11;100110.94;;;-1.78;51.08
19795;BME280;10057;59.402;17.866;2023-03-05T00:13:38;100109.22;;;-1.79;51.35
19795;BME280;10057;59.402;17.866;2023-03-05T00:16:08;100104.03;;;-1.81;51.10
19795;BME280;10057;59.402;17.866;2023-03-05T00:18:35;100114.41;;;-1.82;51.43
19795;BME280;10057;59.402;17.866;2023-03-05T00:21:04;100113.53;;;-1.86;51.08
19795;BME280;10057;59.402;17.866;2023-03-05T00:23:31;100113.53;;;-1.87;51.37
19795;BME280;10057;59.402;17.866;2023-03-05T00:26:00;100110.94;;;-1.91;51.37
19795;BME280;10057;59.402;17.866;2023-03-05T00:28:28;100113.53;;;-1.91;51.26
19795;BME280;10057;59.402;17.866;2023-03-05T00:30:58;100111.78;;;-1.92;51.57
19795;BME280;10057;59.402;17.866;2023-03-05T00:33:26;100105.72;;;-1.94;51.77
19795;BME280;10057;59.402;17.866;2023-03-05T00:35:53;100104.81;;;-1.96;51.36
19795;BME280;10057;59.402;17.866;2023-03-05T00:38:20;100100.50;;;-1.97;51.73
19795;BME280;10057;59.402;17.866;2023-03-05T00:40:49;100100.47;;;-2.00;51.76
19795;BME280;10057;59.402;17.866;2023-03-05T00:43:15;100105.69;;;-2.01;51.59
19795;BME280;10057;59.402;17.866;2023-03-05T00:45:42;100104.81;;;-2.03;51.59
19795;BME280;10057;59.402;17.866;2023-03-05T00:48:09;100107.41;;;-2.05;51.69
19795;BME280;10057;59.402;17.866;2023-03-05T00:50:36;100108.25;;;-2.06;51.75
19795;BME280;10057;59.402;17.866;2023-03-05T00:53:02;100103.94;;;-2.07;52.23
19795;BME280;10057;59.402;17.866;2023-03-05T00:55:29;100101.34;;;-2.08;52.28
19795;BME280;10057;59.402;17.866;2023-03-05T00:57:55;100092.66;;;-2.10;52.35
19795;BME280;10057;59.402;17.866;2023-03-05T01:00:22;100097.00;;;-2.11;52.23
19795;BME280;10057;59.402;17.866;2023-03-05T01:02:49;100092.63;;;-2.12;52.33
19795;BME280;10057;59.402;17.866;2023-03-05T01:05:16;100094.38;;;-2.12;52.25
19795;BME280;10057;59.402;17.866;2023-03-05T01:07:42;100086.56;;;-2.14;52.22
19795;BME280;10057;59.402;17.866;2023-03-05T01:10:10;100090.91;;;-2.15;52.81
19795;BME280;10057;59.402;17.866;2023-03-05T01:12:37;100085.69;;;-2.16;52.55
19795;BME280;10057;59.402;17.866;2023-03-05T01:15:05;100081.34;;;-2.17;53.17
19795;BME280;10057;59.402;17.866;2023-03-05T01:17:32;100083.97;;;-2.19;52.80
19795;BME280;10057;59.402;17.866;2023-03-05T01:19:59;100083.06;;;-2.19;52.66
19795;BME280;10057;59.402;17.866;2023-03-05T01:22:25;100082.22;;;-2.20;53.13
19795;BME280;10057;59.402;17.866;2023-03-05T01:24:52;100083.09;;;-2.21;52.54
19795;BME280;10057;59.402;17.866;2023-03-05T01:27:19;100079.63;;;-2.21;52.39
19795;BME280;10057;59.402;17.866;2023-03-05T01:29:45;100078.75;;;-2.25;53.02
19795;BME280;10057;59.402;17.866;2023-03-05T01:32:12;100076.97;;;-2.26;53.07
19795;BME280;10057;59.402;17.866;2023-03-05T01:34:39;100072.69;;;-2.25;52.95
19795;BME280;10057;59.402;17.866;2023-03-05T01:37:07;100074.38;;;-2.27;52.98
19795;BME280;10057;59.402;17.866;2023-03-05T01:39:34;100070.91;;;-2.29;53.20
19795;BME280;10057;59.402;17.866;2023-03-05T01:42:02;100071.78;;;-2.29;53.52
19795;BME280;10057;59.402;17.866;2023-03-05T01:44:30;100074.41;;;-2.29;53.34
19795;BME280;10057;59.402;17.866;2023-03-05T01:46:57;100063.97;;;-2.30;53.04
19795;BME280;10057;59.402;17.866;2023-03-05T01:49:37;100059.63;;;-2.34;53.02
19795;BME280;10057;59.402;17.866;2023-03-05T01:52:16;100056.19;;;-2.35;53.06
19795;BME280;10057;59.402;17.866;2023-03-05T01:54:55;100062.22;;;-2.34;53.33
19795;BME280;10057;59.402;17.866;2023-03-05T01:57:27;100049.22;;;-2.36;53.35
19795;BME280;10057;59.402;17.866;2023-03-05T01:59:57;100044.91;;;-2.39;53.55
19795;BME280;10057;59.402;17.866;2023-03-05T02:02:25;100053.56;;;-2.38;53.53
19795;BME280;10057;59.402;17.866;2023-03-05T02:04:59;100055.28;;;-2.40;53.08
19795;BME280;10057;59.402;17.866;2023-03-05T02:07:28;100053.53;;;-2.41;53.26
19795;BME280;10057;59.402;17.866;2023-03-05T02:09:56;100052.66;;;-2.40;53.74
19795;BME280;10057;59.402;17.866;2023-03-05T02:12:22;100050.09;;;-2.42;53.51
19795;BME280;10057;59.402;17.866;2023-03-05T02:14:50;100044.88;;;-2.45;53.82
19795;BME280;10057;59.402;17.866;2023-03-05T02:17:26;100054.41;;;-2.45;53.87
19795;BME280;10057;59.402;17.866;2023-03-05T02:19:56;100049.19;;;-2.47;53.74
19795;BME280;10057;59.402;17.866;2023-03-05T02:22:27;100050.03;;;-2.48;54.23
19795;BME280;10057;59.402;17.866;2023-03-05T02:24:54;100046.56;;;-2.50;53.75
19795;BME280;10057;59.402;17.866;2023-03-05T02:27:25;100042.25;;;-2.51;53.68
19795;BME280;10057;59.402;17.866;2023-03-05T02:30:01;100048.31;;;-2.52;54.36
19795;BME280;10057;59.402;17.866;2023-03-05T02:32:28;100043.97;;;-2.53;54.31
19795;BME280;10057;59.402;17.866;2023-03-05T02:34:54;100045.69;;;-2.53;54.11
19795;BME280;10057;59.402;17.866;2023-03-05T02:37:21;100043.09;;;-2.55;54.60
19795;BME280;10057;59.402;17.866;2023-03-05T02:39:48;100031.84;;;-2.55;54.04
19795;BME280;10057;59.402;17.866;2023-03-05T02:42:14;100032.69;;;-2.55;54.77
19795;BME280;10057;59.402;17.866;2023-03-05T02:44:41;100030.97;;;-2.56;54.41
19795;BME280;10057;59.402;17.866;2023-03-05T02:47:08;100036.16;;;-2.56;54.42
19795;BME280;10057;59.402;17.866;2023-03-05T02:49:34;100031.84;;;-2.55;54.87
19795;BME280;10057;59.402;17.866;2023-03-05T02:52:01;100022.28;;;-2.58;54.54
19795;BME280;10057;59.402;17.866;2023-03-05T02:54:28;100029.22;;;-2.58;55.06
19795;BME280;10057;59.402;17.866;2023-03-05T02:56:55;100023.13;;;-2.60;55.15
19795;BME280;10057;59.402;17.866;2023-03-05T02:59:21;100022.25;;;-2.64;54.80
19795;BME280;10057;59.402;17.866;2023-03-05T03:01:48;100022.25;;;-2.64;55.15
19795;BME280;10057;59.402;17.866;2023-03-05T03:04:14;100017.94;;;-2.67;55.17
19795;BME280;10057;59.402;17.866;2023-03-05T03:06:41;100021.41;;;-2.66;55.31
19795;BME280;10057;59.402;17.866;2023-03-05T03:09:08;100013.59;;;-2.69;55.71
19795;BME280;10057;59.402;17.866;2023-03-05T03:11:35;100012.72;;;-2.70;55.13
19795;BME280;10057;59.402;17.866;2023-03-05T03:14:01;100008.41;;;-2.69;55.37
19795;BME280;10057;59.402;17.866;2023-03-05T03:16:28;100006.63;;;-2.70;55.67
19795;BME280;10057;59.402;17.866;2023-03-05T03:18:54;100004.06;;;-2.72;55.49
19795;BME280;10057;59.402;17.866;2023-03-05T03:21:23;99999.72;;;-2.73;55.39
19795;BME280;10057;59.402;17.866;2023-03-05T03:23:50;100007.50;;;-2.74;55.03
19795;BME280;10057;59.402;17.866;2023-03-05T03:26:17;99997.97;;;-2.75;55.62
19795;BME280;10057;59.402;17.866;2023-03-05T03:28:44;99999.69;;;-2.77;55.83
19795;BME280;10057;59.402;17.866;2023-03-05T03:31:11;99999.69;;;-2.77;55.58
19795;BME280;10057;59.402;17.866;2023-03-05T03:33:38;99996.22;;;-2.79;55.92
19795;BME280;10057;59.402;17.866;2023-03-05T03:36:05;99989.28;;;-2.80;55.79
19795;BME280;10057;59.402;17.866;2023-03-05T03:38:31;99994.47;;;-2.80;55.42
19795;BME280;10057;59.402;17.866;2023-03-05T03:40:58;99994.47;;;-2.80;56.05
19795;BME280;10057;59.402;17.866;2023-03-05T03:43:25;99991.00;;;-2.81;55.91
19795;BME280;10057;59.402;17.866;2023-03-05T03:45:51;99987.56;;;-2.81;55.65
19795;BME280;10057;59.402;17.866;2023-03-05T03:48:18;99978.91;;;-2.80;56.18
19795;BME280;10057;59.402;17.866;2023-03-05T03:50:45;99977.16;;;-2.84;56.24
19795;BME280;10057;59.402;17.866;2023-03-05T03:53:12;99978.91;;;-2.83;56.06
19795;BME280;10057;59.402;17.866;2023-03-05T03:55:40;99980.63;;;-2.86;55.92
19795;BME280;10057;59.402;17.866;2023-03-05T03:58:08;99979.75;;;-2.86;56.23
19795;BME280;10057;59.402;17.866;2023-03-05T04:00:35;99987.53;;;-2.86;56.67
19795;BME280;10057;59.402;17.866;2023-03-05T04:03:02;99989.28;;;-2.87;56.48
19795;BME280;10057;59.402;17.866;2023-03-05T04:05:29;99978.03;;;-2.87;56.71
19795;BME280;10057;59.402;17.866;2023-03-05T04:07:56;99976.28;;;-2.88;56.53
19795;BME280;10057;59.402;17.866;2023-03-05T04:10:24;99981.50;;;-2.87;57.13
19795;BME280;10057;59.402;17.866;2023-03-05T04:12:51;99979.72;;;-2.88;56.84
19795;BME280;10057;59.402;17.866;2023-03-05T04:15:18;99972.81;;;-2.89;57.01
19795;BME280;10057;59.402;17.866;2023-03-05T04:17:44;99970.22;;;-2.89;56.96
19795;BME280;10057;59.402;17.866;2023-03-05T04:20:11;99967.63;;;-2.90;57.35
19795;BME280;10057;59.402;17.866;2023-03-05T04:22:38;99964.16;;;-2.89;56.98
19795;BME280;10057;59.402;17.866;2023-03-05T04:25:05;99965.03;;;-2.90;57.42
19795;BME280;10057;59.402;17.866;2023-03-05T04:27:33;99966.72;;;-2.91;56.88
19795;BME280;10057;59.402;17.866;2023-03-05T04:30:01;99961.53;;;-2.92;57.27
19795;BME280;10057;59.402;17.866;2023-03-05T04:32:28;99957.22;;;-2.93;57.20
19795;BME280;10057;59.402;17.866;2023-03-05T04:34:56;99954.59;;;-2.95;56.60
19795;BME280;10057;59.402;17.866;2023-03-05T04:37:24;99954.59;;;-2.95;57.39
19795;BME280;10057;59.402;17.866;2023-03-05T04:39:51;99958.94;;;-2.95;57.53
19795;BME280;10057;59.402;17.866;2023-03-05T04:42:18;99951.16;;;-2.97;57.16
19795;BME280;10057;59.402;17.866;2023-03-05T04:44:47;99950.28;;;-2.97;57.49
19795;BME280;10057;59.402;17.866;2023-03-05T04:47:15;99958.06;;;-2.97;57.26
19795;BME280;10057;59.402;17.866;2023-03-05T04:49:43;99951.16;;;-2.97;57.21
19795;BME280;10057;59.402;17.866;2023-03-05T04:52:11;99951.16;;;-2.97;57.38
19795;BME280;10057;59.402;17.866;2023-03-05T04:54:38;99938.19;;;-2.97;57.19
19795;BME280;10057;59.402;17.866;2023-03-05T04:57:05;99933.81;;;-2.98;57.59
19795;BME280;10057;59.402;17.866;2023-03-05T04:59:32;99939.91;;;-2.96;57.19
19795;BME280;10057;59.402;17.866;2023-03-05T05:01:58;99934.72;;;-2.97;57.30
19795;BME280;10057;59.402;17.866;2023-03-05T05:04:25;99937.28;;;-2.99;57.01
19795;BME280;10057;59.402;17.866;2023-03-05T05:06:54;99939.00;;;-2.98;57.33
19795;BME280;10057;59.402;17.866;2023-03-05T05:09:22;99936.41;;;-2.99;57.73
19795;BME280;10057;59.402;17.866;2023-03-05T05:11:48;99943.34;;;-3.00;57.48
19795;BME280;10057;59.402;17.866;2023-03-05T05:14:15;99939.00;;;-3.01;57.58
19795;BME280;10057;59.402;17.866;2023-03-05T05:16:42;99926.88;;;-3.02;57.67
19795;BME280;10057;59.402;17.866;2023-03-05T05:19:09;99930.34;;;-3.01;57.79
19795;BME280;10057;59.402;17.866;2023-03-05T05:21:36;99926.00;;;-3.01;58.08
19795;BME280;10057;59.402;17.866;2023-03-05T05:24:03;99926.00;;;-3.01;57.64
19795;BME280;10057;59.402;17.866;2023-03-05T05:26:30;99918.22;;;-3.01;57.91
19795;BME280;10057;59.402;17.866;2023-03-05T05:28:57;99920.84;;;-2.99;57.59
19795;BME280;10057;59.402;17.866;2023-03-05T05:31:23;99920.00;;;-3.00;57.39
19795;BME280;10057;59.402;17.866;2023-03-05T05:33:50;99924.31;;;-2.99;57.72
19795;BME280;10057;59.402;17.866;2023-03-05T05:36:17;99921.72;;;-2.99;58.01
19795;BME280;10057;59.402;17.866;2023-03-05T05:38:44;99919.13;;;-2.99;57.48
19795;BME280;10057;59.402;17.866;2023-03-05T05:41:13;99922.59;;;-3.00;58.17
19795;BME280;10057;59.402;17.866;2023-03-05T05:43:41;99918.22;;;-3.01;57.59
19795;BME280;10057;59.402;17.866;2023-03-05T05:46:11;99916.53;;;-2.99;58.05
19795;BME280;10057;59.402;17.866;2023-03-05T05:48:39;99920.00;;;-3.00;57.64
19795;BME280;10057;59.402;17.866;2023-03-05T05:51:11;99918.22;;;-3.01;57.88
19795;BME280;10057;59.402;17.866;2023-03-05T05:53:40;99926.03;;;-2.99;58.03
19795;BME280;10057;59.402;17.866;2023-03-05T05:56:10;99910.47;;;-2.98;58.18
19795;BME280;10057;59.402;17.866;2023-03-05T05:58:38;99917.41;;;-2.97;58.24
19795;BME280;10057;59.402;17.866;2023-03-05T06:03:44;99913.09;;;-2.96;57.89
19795;BME280;10057;59.402;17.866;2023-03-05T06:06:13;99914.81;;;-2.97;58.06
19795;BME280;10057;59.402;17.866;2023-03-05T06:08:40;99915.66;;;-2.95;58.23
19795;BME280;10057;59.402;17.866;2023-03-05T06:11:08;99909.63;;;-2.94;58.06
19795;BME280;10057;59.402;17.866;2023-03-05T06:13:35;99900.97;;;-2.91;58.45
19795;BME280;10057;59.402;17.866;2023-03-05T06:16:06;99901.00;;;-2.90;58.03
19795;BME280;10057;59.402;17.866;2023-03-05T06:18:34;99907.06;;;-2.86;58.15
19795;BME280;10057;59.402;17.866;2023-03-05T06:21:03;99905.31;;;-2.84;58.37
19795;BME280;10057;59.402;17.866;2023-03-05T06:23:31;99912.28;;;-2.83;58.55
19795;BME280;10057;59.402;17.866;2023-03-05T06:26:00;99909.66;;;-2.81;57.94
19795;BME280;10057;59.402;17.866;2023-03-05T06:28:28;99909.69;;;-2.80;58.22
19795;BME280;10057;59.402;17.866;2023-03-05T06:31:02;99908.81;;;-2.79;57.66
19795;BME280;10057;59.402;17.866;2023-03-05T06:33:30;99914.00;;;-2.77;57.73
19795;BME280;10057;59.402;17.866;2023-03-05T06:35:57;99906.22;;;-2.74;57.86
19795;BME280;10057;59.402;17.866;2023-03-05T06:38:24;99904.53;;;-2.72;58.28
19795;BME280;10057;59.402;17.866;2023-03-05T06:40:51;99897.59;;;-2.70;57.96
19795;BME280;10057;59.402;17.866;2023-03-05T06:43:18;99904.53;;;-2.69;57.52
19795;BME280;10057;59.402;17.866;2023-03-05T06:45:45;99914.06;;;-2.65;58.01
19795;BME280;10057;59.402;17.866;2023-03-05T06:48:11;99914.94;;;-2.63;57.41
19795;BME280;10057;59.402;17.866;2023-03-05T06:50:38;99908.00;;;-2.61;57.59
19795;BME280;10057;59.402;17.866;2023-03-05T06:53:05;99904.56;;;-2.55;57.64
19795;BME280;10057;59.402;17.866;2023-03-05T06:55:35;99904.56;;;-2.54;58.08
19795;BME280;10057;59.402;17.866;2023-03-05T06:58:05;99908.03;;;-2.52;57.29
19795;BME280;10057;59.402;17.866;2023-03-05T07:00:32;99895.03;;;-2.50;57.48
19795;BME280;10057;59.402;17.866;2023-03-05T07:02:59;99908.91;;;-2.47;57.28
19795;BME280;10057;59.402;17.866;2023-03-05T07:05:26;99913.25;;;-2.46;57.27
19795;BME280;10057;59.402;17.866;2023-03-05T07:07:52;99895.94;;;-2.44;57.79
19795;BME280;10057;59.402;17.866;2023-03-05T07:10:19;99900.28;;;-2.41;57.71
19795;BME280;10057;59.402;17.866;2023-03-05T07:12:46;99893.34;;;-2.38;57.39
19795;BME280;10057;59.402;17.866;2023-03-05T07:15:12;99883.81;;;-2.37;57.78
19795;BME280;10057;59.402;17.866;2023-03-05T07:17:39;99901.16;;;-2.31;57.98
19795;BME280;10057;59.402;17.866;2023-03-05T07:20:06;99889.03;;;-2.29;57.43
19795;BME280;10057;59.402;17.866;2023-03-05T07:22:36;99882.09;;;-2.27;57.61
19795;BME280;10057;59.402;17.866;2023-03-05T07:25:03;99883.84;;;-2.23;57.85
19795;BME280;10057;59.402;17.866;2023-03-05T07:27:34;99883.84;;;-2.20;57.01
19795;BME280;10057;59.402;17.866;2023-03-05T07:30:00;99876.94;;;-2.15;57.62
19795;BME280;10057;59.402;17.866;2023-03-05T07:32:27;99878.66;;;-2.08;57.61
19795;BME280;10057;59.402;17.866;2023-03-05T07:34:54;99881.28;;;-2.05;56.87
19795;BME280;10057;59.402;17.866;2023-03-05T07:37:20;99866.53;;;-1.98;57.26
19795;BME280;10057;59.402;17.866;2023-03-05T07:39:48;99872.59;;;-1.95;56.95
19795;BME280;10057;59.402;17.866;2023-03-05T07:42:15;99862.19;;;-1.92;57.04
19795;BME280;10057;59.402;17.866;2023-03-05T07:44:42;99858.72;;;-1.86;56.37
19795;BME280;10057;59.402;17.866;2023-03-05T07:47:08;99869.09;;;-1.81;56.15
19795;BME280;10057;59.402;17.866;2023-03-05T07:49:35;99871.69;;;-1.78;56.74
19795;BME280;10057;59.402;17.866;2023-03-05T07:52:02;99868.25;;;-1.76;56.67
19795;BME280;10057;59.402;17.866;2023-03-05T07:54:29;99871.69;;;-1.75;56.20
19795;BME280;10057;59.402;17.866;2023-03-05T07:56:55;99863.91;;;-1.72;56.49
19795;BME280;10057;59.402;17.866;2023-03-05T07:59:22;99870.81;;;-1.71;55.68
19795;BME280;10057;59.402;17.866;2023-03-05T08:01:48;99868.22;;;-1.71;56.64
19795;BME280;10057;59.402;17.866;2023-03-05T08:04:15;99862.16;;;-1.69;56.48
19795;BME280;10057;59.402;17.866;2023-03-05T08:06:42;99860.44;;;-1.63;56.50
19795;BME280;10057;59.402;17.866;2023-03-05T08:09:09;99856.94;;;-1.55;56.74
19795;BME280;10057;59.402;17.866;2023-03-05T08:11:35;99852.59;;;-1.50;55.95
19795;BME280;10057;59.402;17.866;2023-03-05T08:14:02;99843.91;;;-1.47;56.27
19795;BME280;10057;59.402;17.866;2023-03-05T08:16:30;99849.09;;;-1.39;55.84
19795;BME280;10057;59.402;17.866;2023-03-05T08:18:58;99837.81;;;-1.32;56.08
19795;BME280;10057;59.402;17.866;2023-03-05T08:21:27;99840.41;;;-1.29;55.68
19795;BME280;10057;59.402;17.866;2023-03-05T08:23:56;99837.81;;;-1.29;55.37
19795;BME280;10057;59.402;17.866;2023-03-05T08:26:25;99839.50;;;-1.25;55.57
19795;BME280;10057;59.402;17.866;2023-03-05T08:28:53;99828.22;;;-1.21;55.82
19795;BME280;10057;59.402;17.866;2023-03-05T08:31:22;99819.50;;;-1.17;55.45
19795;BME280;10057;59.402;17.866;2023-03-05T08:33:51;99818.63;;;-1.10;55.56
19795;BME280;10057;59.402;17.866;2023-03-05T08:36:18;99816.84;;;-1.03;55.86
19795;BME280;10057;59.402;17.866;2023-03-05T08:38:45;99810.78;;;-1.01;55.39
19795;BME280;10057;59.402;17.866;2023-03-05T08:41:15;99803.84;;;-0.99;55.51
19795;BME280;10057;59.402;17.866;2023-03-05T08:43:42;99811.63;;;-0.96;55.67
19795;BME280;10057;59.402;17.866;2023-03-05T08:46:13;99814.22;;;-0.94;55.39
19795;BME280;10057;59.402;17.866;2023-03-05T08:48:41;99815.94;;;-0.91;55.45
19795;BME280;10057;59.402;17.866;2023-03-05T08:51:13;99815.94;;;-0.88;55.59
19795;BME280;10057;59.402;17.866;2023-03-05T08:53:42;99820.25;;;-0.84;55.33
19795;BME280;10057;59.402;17.866;2023-03-05T08:56:09;99827.13;;;-0.79;55.46
19795;BME280;10057;59.402;17.866;2023-03-05T08:58:36;99822.78;;;-0.74;55.29
19795;BME280;10057;59.402;17.866;2023-03-05T09:01:03;99828.81;;;-0.68;55.84
19795;BME280;10057;59.402;17.866;2023-03-05T09:03:31;99829.66;;;-0.60;55.84
19795;BME280;10057;59.402;17.866;2023-03-05T09:05:59;99829.59;;;-0.56;55.21
19795;BME280;10057;59.402;17.866;2023-03-05T09:08:26;99828.75;;;-0.55;55.17
19795;BME280;10057;59.402;17.866;2023-03-05T09:10:54;99829.56;;;-0.46;55.09
19795;BME280;10057;59.402;17.866;2023-03-05T09:13:21;99823.44;;;-0.42;55.16
19795;BME280;10057;59.402;17.866;2023-03-05T09:15:59;99819.03;;;-0.34;54.42
19795;BME280;10057;59.402;17.866;2023-03-05T09:18:26;99819.91;;;-0.31;54.44
19795;BME280;10057;59.402;17.866;2023-03-05T09:20:53;99814.63;;;-0.23;54.57
19795;BME280;10057;59.402;17.866;2023-03-05T09:23:21;99798.97;;;-0.20;54.27
19795;BME280;10057;59.402;17.866;2023-03-05T09:25:48;99803.22;;;-0.10;54.23
19795;BME280;10057;59.402;17.866;2023-03-05T09:28:15;99802.25;;;-0.01;54.06
19795;BME280;10057;59.402;17.866;2023-03-05T09:30:42;99798.72;;;0.08;54.01
19795;BME280;10057;59.402;17.866;2023-03-05T09:33:10;99799.50;;;0.14;53.93
19795;BME280;10057;59.402;17.866;2023-03-05T09:35:37;99800.34;;;0.18;53.91
19795;BME280;10057;59.402;17.866;2023-03-05T09:38:04;99795.19;;;0.10;53.46
19795;BME280;10057;59.402;17.866;2023-03-05T09:46:17;99796.19;;;-0.05;53.08
19795;BME280;10057;59.402;17.866;2023-03-05T09:48:51;99790.13;;;-0.05;53.42
19795;BME280;10057;59.402;17.866;2023-03-05T09:51:27;99791.84;;;-0.03;53.20
19795;BME280;10057;59.402;17.866;2023-03-05T09:56:40;99787.28;;;0.19;53.42
19795;BME280;10057;59.402;17.866;2023-03-05T10:01:51;99782.75;;;0.38;53.26
19795;BME280;10057;59.402;17.866;2023-03-05T10:04:25;99777.50;;;0.40;52.96
19795;BME280;10057;59.402;17.866;2023-03-05T10:07:20;99776.56;;;0.45;53.28
19795;BME280;10057;59.402;17.866;2023-03-05T10:09:59;99774.78;;;0.47;52.57
19795;BME280;10057;59.402;17.866;2023-03-05T10:12:42;99784.41;;;0.44;52.22
19795;BME280;10057;59.402;17.866;2023-03-05T10:15:14;99776.63;;;0.39;52.35
19795;BME280;10057;59.402;17.866;2023-03-05T10:23:27;99775.69;;;0.48;52.25
19795;BME280;10057;59.402;17.866;2023-03-05T10:26:11;99766.06;;;0.52;52.25
19795;BME280;10057;59.402;17.866;2023-03-05T10:28:53;99769.50;;;0.54;52.04
19795;BME280;10057;59.402;17.866;2023-03-05T10:31:36;99764.22;;;0.60;52.34
19795;BME280;10057;59.402;17.866;2023-03-05T10:46:56;99750.69;;;0.97;51.84
19795;BME280;10057;59.402;17.866;2023-03-05T10:49:29;99754.91;;;1.07;51.57
19795;BME280;10057;59.402;17.866;2023-03-05T10:52:09;99753.09;;;1.10;50.87
19795;BME280;10057;59.402;17.866;2023-03-05T10:54:43;99750.50;;;1.10;51.10
19795;BME280;10057;59.402;17.866;2023-03-05T10:57:17;99751.41;;;1.08;50.97
19795;BME280;10057;59.402;17.866;2023-03-05T11:00:24;99742.59;;;1.15;51.31
19795;BME280;10057;59.402;17.866;2023-03-05T11:03:06;99738.00;;;1.31;50.75
19795;BME280;10057;59.402;17.866;2023-03-05T11:05:59;99741.44;;;1.34;50.10
19795;BME280;10057;59.402;17.866;2023-03-05T11:08:33;99749.19;;;1.40;50.33
19795;BME280;10057;59.402;17.866;2023-03-05T11:11:10;99745.63;;;1.45;50.44
19795;BME280;10057;59.402;17.866;2023-03-05T11:13:59;99738.59;;;1.47;50.03
19795;BME280;10057;59.402;17.866;2023-03-05T11:16:46;99734.91;;;1.60;49.78
19795;BME280;10057;59.402;17.866;2023-03-05T11:19:19;99734.06;;;1.59;49.77
19795;BME280;10057;59.402;17.866;2023-03-05T11:24:29;99734.94;;;1.57;50.01
19795;BME280;10057;59.402;17.866;2023-03-05T11:26:56;99733.22;;;1.57;49.34
19795;BME280;10057;59.402;17.866;2023-03-05T11:29:26;99727.13;;;1.57;49.19
19795;BME280;10057;59.402;17.866;2023-03-05T11:31:53;99725.47;;;1.51;49.17
19795;BME280;10057;59.402;17.866;2023-03-05T11:34:29;99731.66;;;1.46;49.13
19795;BME280;10057;59.402;17.866;2023-03-05T11:39:24;99732.66;;;1.38;48.66
19795;BME280;10057;59.402;17.866;2023-03-05T11:44:22;99729.22;;;1.35;49.08
19795;BME280;10057;59.402;17.866;2023-03-05T11:46:54;99725.75;;;1.34;48.95
19795;BME280;10057;59.402;17.866;2023-03-05T11:49:25;99730.94;;;1.36;49.13
19795;BME280;10057;59.402;17.866;2023-03-05T11:51:59;99734.44;;;1.35;48.90
19795;BME280;10057;59.402;17.866;2023-03-05T11:54:38;99733.59;;;1.34;49.33
19795;BME280;10057;59.402;17.866;2023-03-05T11:57:07;99733.56;;;1.36;48.74
19795;BME280;10057;59.402;17.866;2023-03-05T11:59:37;99722.28;;;1.32;48.96
19795;BME280;10057;59.402;17.866;2023-03-05T12:02:21;99723.22;;;1.28;48.64
19795;BME280;10057;59.402;17.866;2023-03-05T12:04:49;99727.72;;;1.18;49.22
19795;BME280;10057;59.402;17.866;2023-03-05T12:07:21;99732.97;;;1.17;49.06
19795;BME280;10057;59.402;17.866;2023-03-05T12:09:51;99723.47;;;1.13;49.19
19795;BME280;10057;59.402;17.866;2023-03-05T12:23:25;99729.94;;;0.86;52.31
19795;BME280;10057;59.402;17.866;2023-03-05T12:25:55;99731.94;;;0.67;53.14
19795;BME280;10057;59.402;17.866;2023-03-05T12:38:43;99732.41;;;0.27;55.65
19795;BME280;10057;59.402;17.866;2023-03-05T12:51:50;99722.97;;;0.85;55.65
19795;BME280;10057;59.402;17.866;2023-03-05T12:54:38;99728.06;;;0.95;55.86
19795;BME280;10057;59.402;17.866;2023-03-05T12:57:18;99721.81;;;1.06;55.70
19795;BME280;10057;59.402;17.866;2023-03-05T12:59:57;99725.22;;;1.11;55.83
19795;BME280;10057;59.402;17.866;2023-03-05T13:02:31;99721.03;;;1.01;56.21
19795;BME280;10057;59.402;17.866;2023-03-05T13:05:03;99720.19;;;0.99;56.02
19795;BME280;10057;59.402;17.866;2023-03-05T13:07:32;99725.44;;;0.95;56.34
19795;BME280;10057;59.402;17.866;2023-03-05T13:09:59;99727.09;;;1.03;56.46
19795;BME280;10057;59.402;17.866;2023-03-05T13:12:28;99726.16;;;1.07;56.28
19795;BME280;10057;59.402;17.866;2023-03-05T13:15:06;99725.44;;;0.95;56.49
19795;BME280;10057;59.402;17.866;2023-03-05T13:17:51;99725.72;;;0.77;56.58
19795;BME280;10057;59.402;17.866;2023-03-05T13:23:23;99722.38;;;0.66;57.13
19795;BME280;10057;59.402;17.866;2023-03-05T13:28:42;99735.22;;;0.83;57.25
19795;BME280;10057;59.402;17.866;2023-03-05T13:31:15;99733.59;;;0.71;58.07
19795;BME280;10057;59.402;17.866;2023-03-05T13:33:52;99730.25;;;0.63;57.99
19795;BME280;10057;59.402;17.866;2023-03-05T13:36:23;99727.84;;;0.44;58.39
19795;BME280;10057;59.402;17.866;2023-03-05T13:38:50;99732.38;;;0.32;58.80
19795;BME280;10057;59.402;17.866;2023-03-05T13:41:20;99735.09;;;0.21;59.14
19795;BME280;10057;59.402;17.866;2023-03-05T13:43:59;99735.16;;;0.15;59.48
19795;BME280;10057;59.402;17.866;2023-03-05T13:46:35;99730.91;;;0.03;60.02
19795;BME280;10057;59.402;17.866;2023-03-05T13:51:50;99730.22;;;-0.10;60.30
19795;BME280;10057;59.402;17.866;2023-03-05T13:54:17;99730.19;;;-0.07;60.40
19795;BME280;10057;59.402;17.866;2023-03-05T13:57:02;99730.09;;;-0.01;60.22
19795;BME280;10057;59.402;17.866;2023-03-05T13:59:35;99724.00;;;0.02;60.28
19795;BME280;10057;59.402;17.866;2023-03-05T14:02:16;99725.75;;;0.02;60.42
19795;BME280;10057;59.402;17.866;2023-03-05T14:04:44;99721.31;;;0.08;59.99
19795;BME280;10057;59.402;17.866;2023-03-05T14:07:36;99727.19;;;0.29;60.20
19795;BME280;10057;59.402;17.866;2023-03-05T14:12:55;99715.75;;;0.37;59.75
19795;BME280;10057;59.402;17.866;2023-03-05T14:15:32;99713.03;;;0.46;59.71
19795;BME280;10057;59.402;17.866;2023-03-05T14:20:39;99705.94;;;0.58;59.26
19795;BME280;10057;59.402;17.866;2023-03-05T14:26:33;99708.44;;;0.67;59.02
19795;BME280;10057;59.402;17.866;2023-03-05T14:31:44;99701.44;;;0.70;58.30
19795;BME280;10057;59.402;17.866;2023-03-05T14:34:37;99704.06;;;0.69;58.39